Point Mugu Naval Air Station (Naval Base Ventura Co) Point Mugu US
ICAO: KNTD
IATA: NTD
Category: Medium
Scheduled Services: No

Elevation: 13 ft
TransAlt. 18000 ft.

Airport Communications:
APP/DEP:128.65
ATIS:125.55
CLNC DEL:120.75
GND:121.6
ANG OPS:30.56
BASE OPS:26.75
PMSV METRO:38.635
HAWTHORNE RDO:112.5
TWR:124.85

KNTD Zoom In..

If you have problems with the map follow the link
https://www.worldairports.se/pages/airport.php?
ICAO=KNTD

Runways:

(A) RW 03 length 11102 ft width 200 ft
---- / hdg 30

(B) RW 09 length 5502 ft width 200 ft
---- / hdg 91

(C) RW 21 length 11102 ft width 200 ft
ILS 109.30 / hdg 210

(D) RW 27 length 5502 ft width 200 ft
---- / hdg 271

Location; KNTD
Day. 05 / Time. 21.52 Zulu
* Altimeter: 30.10
* Temperature: 17° c. 62.6°f.
* Wind from: 180° Speed 11 kn.
Dewpoint: 12° c.
Visibility: 10 Statute Miles.
Clouds: Few 2000 ft.
Clouds: Broken 6000 ft.

KNTD 052152Z 18011KT 10SM FEW020 BKN060 17/12 A3010 RMK AO2 SLP194 T01720117 $


Wind From 180°
Speed 11 kn.

 
 
jpsmedia worldairports.se 2019   terms of use